sensor_id;sensor_type;location;lat;lon;timestamp;P1;durP1;ratioP1;P2;durP2;ratioP2
67715;SDS011;54508;43.238;25.306;2022-10-22T00:02:21;11.13;;;8.13;;
67715;SDS011;54508;43.238;25.306;2022-10-22T00:04:47;10.30;;;7.95;;
67715;SDS011;54508;43.238;25.306;2022-10-22T00:07:13;9.65;;;7.90;;
67715;SDS011;54508;43.238;25.306;2022-10-22T00:09:39;9.85;;;7.97;;
67715;SDS011;54508;43.238;25.306;2022-10-22T00:12:05;15.02;;;8.68;;
67715;SDS011;54508;43.238;25.306;2022-10-22T00:14:31;12.50;;;7.55;;
67715;SDS011;54508;43.238;25.306;2022-10-22T00:16:56;12.15;;;7.82;;
67715;SDS011;54508;43.238;25.306;2022-10-22T00:19:25;12.05;;;8.38;;
67715;SDS011;54508;43.238;25.306;2022-10-22T00:21:51;11.37;;;8.27;;
67715;SDS011;54508;43.238;25.306;2022-10-22T00:24:16;12.00;;;8.23;;
67715;SDS011;54508;43.238;25.306;2022-10-22T00:26:41;11.93;;;8.40;;
67715;SDS011;54508;43.238;25.306;2022-10-22T00:29:07;10.20;;;7.70;;
67715;SDS011;54508;43.238;25.306;2022-10-22T00:31:32;10.37;;;7.63;;
67715;SDS011;54508;43.238;25.306;2022-10-22T00:33:58;12.80;;;8.63;;
67715;SDS011;54508;43.238;25.306;2022-10-22T00:36:24;12.00;;;8.63;;
67715;SDS011;54508;43.238;25.306;2022-10-22T00:38:50;12.75;;;8.98;;
67715;SDS011;54508;43.238;25.306;2022-10-22T00:41:15;13.75;;;8.65;;
67715;SDS011;54508;43.238;25.306;2022-10-22T00:44:00;12.27;;;7.97;;
67715;SDS011;54508;43.238;25.306;2022-10-22T00:46:29;10.32;;;7.88;;
67715;SDS011;54508;43.238;25.306;2022-10-22T00:48:55;11.98;;;8.25;;
67715;SDS011;54508;43.238;25.306;2022-10-22T00:51:22;11.68;;;8.20;;
67715;SDS011;54508;43.238;25.306;2022-10-22T00:53:51;10.23;;;7.50;;
67715;SDS011;54508;43.238;25.306;2022-10-22T00:56:20;12.65;;;8.27;;
67715;SDS011;54508;43.238;25.306;2022-10-22T00:58:47;11.02;;;7.97;;
67715;SDS011;54508;43.238;25.306;2022-10-22T01:01:17;11.50;;;7.95;;
67715;SDS011;54508;43.238;25.306;2022-10-22T01:03:47;10.88;;;7.72;;
67715;SDS011;54508;43.238;25.306;2022-10-22T01:06:27;10.87;;;7.87;;
67715;SDS011;54508;43.238;25.306;2022-10-22T01:22:32;14.18;;;8.50;;
67715;SDS011;54508;43.238;25.306;2022-10-22T01:30:18;11.07;;;7.50;;
67715;SDS011;54508;43.238;25.306;2022-10-22T01:32:49;17.17;;;7.83;;
67715;SDS011;54508;43.238;25.306;2022-10-22T01:35:23;10.77;;;7.65;;
67715;SDS011;54508;43.238;25.306;2022-10-22T01:37:56;13.95;;;7.55;;
67715;SDS011;54508;43.238;25.306;2022-10-22T01:40:24;13.85;;;7.63;;
67715;SDS011;54508;43.238;25.306;2022-10-22T01:42:58;13.83;;;7.47;;
67715;SDS011;54508;43.238;25.306;2022-10-22T01:45:51;12.43;;;8.05;;
67715;SDS011;54508;43.238;25.306;2022-10-22T01:56:29;16.17;;;9.23;;
67715;SDS011;54508;43.238;25.306;2022-10-22T02:04:47;13.07;;;8.40;;
67715;SDS011;54508;43.238;25.306;2022-10-22T02:07:08;21.27;;;12.77;;
67715;SDS011;54508;43.238;25.306;2022-10-22T02:09:35;19.53;;;9.70;;
67715;SDS011;54508;43.238;25.306;2022-10-22T02:12:02;15.93;;;8.70;;
67715;SDS011;54508;43.238;25.306;2022-10-22T02:14:30;18.08;;;9.07;;
67715;SDS011;54508;43.238;25.306;2022-10-22T02:16:56;13.55;;;8.15;;
67715;SDS011;54508;43.238;25.306;2022-10-22T02:19:27;13.90;;;9.13;;
67715;SDS011;54508;43.238;25.306;2022-10-22T02:22:04;12.63;;;8.50;;
67715;SDS011;54508;43.238;25.306;2022-10-22T02:24:29;13.90;;;9.00;;
67715;SDS011;54508;43.238;25.306;2022-10-22T02:29:40;13.25;;;8.15;;
67715;SDS011;54508;43.238;25.306;2022-10-22T02:32:10;12.70;;;8.32;;
67715;SDS011;54508;43.238;25.306;2022-10-22T02:34:39;14.95;;;8.40;;
67715;SDS011;54508;43.238;25.306;2022-10-22T02:37:05;11.88;;;7.72;;
67715;SDS011;54508;43.238;25.306;2022-10-22T02:39:31;13.40;;;8.10;;
67715;SDS011;54508;43.238;25.306;2022-10-22T02:41:57;10.95;;;7.45;;
67715;SDS011;54508;43.238;25.306;2022-10-22T02:44:22;11.33;;;7.40;;
67715;SDS011;54508;43.238;25.306;2022-10-22T02:46:48;10.38;;;7.35;;
67715;SDS011;54508;43.238;25.306;2022-10-22T02:49:15;11.98;;;7.60;;
67715;SDS011;54508;43.238;25.306;2022-10-22T02:51:40;11.53;;;8.03;;
67715;SDS011;54508;43.238;25.306;2022-10-22T02:54:06;12.13;;;7.47;;
67715;SDS011;54508;43.238;25.306;2022-10-22T02:56:32;15.50;;;7.00;;
67715;SDS011;54508;43.238;25.306;2022-10-22T02:58:58;10.20;;;6.70;;
67715;SDS011;54508;43.238;25.306;2022-10-22T03:01:23;11.57;;;7.57;;
67715;SDS011;54508;43.238;25.306;2022-10-22T03:03:49;10.32;;;7.20;;
67715;SDS011;54508;43.238;25.306;2022-10-22T03:06:14;9.40;;;6.95;;
67715;SDS011;54508;43.238;25.306;2022-10-22T03:08:40;10.13;;;6.97;;
67715;SDS011;54508;43.238;25.306;2022-10-22T03:11:05;8.82;;;6.97;;
67715;SDS011;54508;43.238;25.306;2022-10-22T03:13:31;10.27;;;6.60;;
67715;SDS011;54508;43.238;25.306;2022-10-22T03:15:56;12.30;;;7.50;;
67715;SDS011;54508;43.238;25.306;2022-10-22T03:18:22;11.03;;;7.30;;
67715;SDS011;54508;43.238;25.306;2022-10-22T03:20:47;9.43;;;6.47;;
67715;SDS011;54508;43.238;25.306;2022-10-22T03:23:13;10.20;;;7.10;;
67715;SDS011;54508;43.238;25.306;2022-10-22T03:25:40;8.63;;;6.13;;
67715;SDS011;54508;43.238;25.306;2022-10-22T03:28:08;9.75;;;6.82;;
67715;SDS011;54508;43.238;25.306;2022-10-22T03:30:35;9.60;;;6.60;;
67715;SDS011;54508;43.238;25.306;2022-10-22T03:33:00;12.77;;;6.23;;
67715;SDS011;54508;43.238;25.306;2022-10-22T03:35:26;10.27;;;6.97;;
67715;SDS011;54508;43.238;25.306;2022-10-22T03:37:51;9.30;;;6.40;;
67715;SDS011;54508;43.238;25.306;2022-10-22T03:40:17;9.23;;;7.20;;
67715;SDS011;54508;43.238;25.306;2022-10-22T03:42:43;9.40;;;6.65;;
67715;SDS011;54508;43.238;25.306;2022-10-22T03:45:09;13.30;;;6.50;;
67715;SDS011;54508;43.238;25.306;2022-10-22T03:47:35;10.32;;;7.32;;
67715;SDS011;54508;43.238;25.306;2022-10-22T03:50:01;8.60;;;6.20;;
67715;SDS011;54508;43.238;25.306;2022-10-22T03:52:27;8.95;;;6.75;;
67715;SDS011;54508;43.238;25.306;2022-10-22T03:54:53;9.40;;;6.67;;
67715;SDS011;54508;43.238;25.306;2022-10-22T03:57:18;8.88;;;6.57;;
67715;SDS011;54508;43.238;25.306;2022-10-22T03:59:44;9.50;;;6.60;;
67715;SDS011;54508;43.238;25.306;2022-10-22T04:02:11;11.20;;;6.75;;
67715;SDS011;54508;43.238;25.306;2022-10-22T04:04:37;9.45;;;6.45;;
67715;SDS011;54508;43.238;25.306;2022-10-22T04:07:03;11.17;;;6.83;;
67715;SDS011;54508;43.238;25.306;2022-10-22T04:09:30;9.40;;;6.82;;
67715;SDS011;54508;43.238;25.306;2022-10-22T04:11:56;9.32;;;6.85;;
67715;SDS011;54508;43.238;25.306;2022-10-22T04:14:22;11.57;;;6.60;;
67715;SDS011;54508;43.238;25.306;2022-10-22T04:16:47;8.13;;;6.90;;
67715;SDS011;54508;43.238;25.306;2022-10-22T04:19:13;10.00;;;7.30;;
67715;SDS011;54508;43.238;25.306;2022-10-22T04:21:38;9.53;;;7.30;;
67715;SDS011;54508;43.238;25.306;2022-10-22T04:24:04;9.23;;;6.77;;
67715;SDS011;54508;43.238;25.306;2022-10-22T04:26:30;8.80;;;7.25;;
67715;SDS011;54508;43.238;25.306;2022-10-22T04:28:55;8.57;;;6.17;;
67715;SDS011;54508;43.238;25.306;2022-10-22T04:31:23;8.97;;;6.33;;
67715;SDS011;54508;43.238;25.306;2022-10-22T04:33:52;9.60;;;6.97;;
67715;SDS011;54508;43.238;25.306;2022-10-22T04:36:23;12.80;;;7.20;;
67715;SDS011;54508;43.238;25.306;2022-10-22T04:38:56;15.33;;;6.80;;
67715;SDS011;54508;43.238;25.306;2022-10-22T04:41:30;9.35;;;6.85;;
67715;SDS011;54508;43.238;25.306;2022-10-22T04:43:58;9.10;;;6.88;;
67715;SDS011;54508;43.238;25.306;2022-10-22T04:46:24;9.05;;;6.40;;
67715;SDS011;54508;43.238;25.306;2022-10-22T04:48:51;10.27;;;6.85;;
67715;SDS011;54508;43.238;25.306;2022-10-22T04:51:17;13.30;;;6.80;;
67715;SDS011;54508;43.238;25.306;2022-10-22T04:53:44;13.85;;;6.97;;
67715;SDS011;54508;43.238;25.306;2022-10-22T04:58:37;12.02;;;7.05;;
67715;SDS011;54508;43.238;25.306;2022-10-22T05:01:13;12.57;;;7.67;;
67715;SDS011;54508;43.238;25.306;2022-10-22T05:03:41;10.57;;;7.10;;
67715;SDS011;54508;43.238;25.306;2022-10-22T05:06:07;13.23;;;7.72;;
67715;SDS011;54508;43.238;25.306;2022-10-22T05:08:32;13.90;;;7.50;;
67715;SDS011;54508;43.238;25.306;2022-10-22T05:10:58;12.13;;;7.63;;
67715;SDS011;54508;43.238;25.306;2022-10-22T05:13:24;13.23;;;7.50;;
67715;SDS011;54508;43.238;25.306;2022-10-22T05:15:49;10.57;;;7.77;;
67715;SDS011;54508;43.238;25.306;2022-10-22T05:18:14;12.25;;;7.45;;
67715;SDS011;54508;43.238;25.306;2022-10-22T05:20:40;16.45;;;9.07;;
67715;SDS011;54508;43.238;25.306;2022-10-22T05:23:06;11.82;;;7.88;;
67715;SDS011;54508;43.238;25.306;2022-10-22T05:25:36;16.07;;;8.80;;
67715;SDS011;54508;43.238;25.306;2022-10-22T05:28:04;13.35;;;8.45;;
67715;SDS011;54508;43.238;25.306;2022-10-22T05:30:30;21.37;;;10.07;;
67715;SDS011;54508;43.238;25.306;2022-10-22T05:32:55;19.45;;;10.45;;
67715;SDS011;54508;43.238;25.306;2022-10-22T05:35:21;23.17;;;11.18;;
67715;SDS011;54508;43.238;25.306;2022-10-22T05:37:46;20.93;;;11.10;;
67715;SDS011;54508;43.238;25.306;2022-10-22T05:40:11;27.23;;;10.90;;
67715;SDS011;54508;43.238;25.306;2022-10-22T05:42:37;15.73;;;9.87;;
67715;SDS011;54508;43.238;25.306;2022-10-22T05:45:03;16.85;;;10.82;;
67715;SDS011;54508;43.238;25.306;2022-10-22T05:47:29;19.87;;;11.17;;
67715;SDS011;54508;43.238;25.306;2022-10-22T05:49:54;21.88;;;10.98;;
67715;SDS011;54508;43.238;25.306;2022-10-22T05:52:21;18.67;;;10.70;;
67715;SDS011;54508;43.238;25.306;2022-10-22T05:54:48;21.10;;;11.15;;
67715;SDS011;54508;43.238;25.306;2022-10-22T05:57:13;20.30;;;11.83;;
67715;SDS011;54508;43.238;25.306;2022-10-22T05:59:39;22.10;;;13.75;;
67715;SDS011;54508;43.238;25.306;2022-10-22T06:02:04;30.83;;;13.53;;
67715;SDS011;54508;43.238;25.306;2022-10-22T06:04:30;24.80;;;13.15;;
67715;SDS011;54508;43.238;25.306;2022-10-22T06:06:56;32.30;;;13.43;;
67715;SDS011;54508;43.238;25.306;2022-10-22T06:09:26;25.07;;;13.97;;
67715;SDS011;54508;43.238;25.306;2022-10-22T06:11:54;24.52;;;14.10;;
67715;SDS011;54508;43.238;25.306;2022-10-22T06:14:20;29.33;;;15.75;;
67715;SDS011;54508;43.238;25.306;2022-10-22T06:16:46;23.70;;;13.48;;
67715;SDS011;54508;43.238;25.306;2022-10-22T06:19:13;23.92;;;13.80;;
67715;SDS011;54508;43.238;25.306;2022-10-22T06:21:39;25.33;;;13.63;;
67715;SDS011;54508;43.238;25.306;2022-10-22T06:24:05;23.13;;;12.95;;
67715;SDS011;54508;43.238;25.306;2022-10-22T06:26:31;21.73;;;12.90;;
67715;SDS011;54508;43.238;25.306;2022-10-22T06:28:57;18.50;;;11.25;;
67715;SDS011;54508;43.238;25.306;2022-10-22T06:31:23;21.67;;;10.50;;
67715;SDS011;54508;43.238;25.306;2022-10-22T06:33:49;18.70;;;10.93;;
67715;SDS011;54508;43.238;25.306;2022-10-22T06:36:15;90.57;;;16.43;;
67715;SDS011;54508;43.238;25.306;2022-10-22T06:38:42;38.33;;;13.15;;
67715;SDS011;54508;43.238;25.306;2022-10-22T06:41:09;38.87;;;13.53;;
67715;SDS011;54508;43.238;25.306;2022-10-22T06:43:39;39.97;;;15.85;;
67715;SDS011;54508;43.238;25.306;2022-10-22T06:46:07;37.22;;;16.40;;
67715;SDS011;54508;43.238;25.306;2022-10-22T06:48:36;39.00;;;15.52;;
67715;SDS011;54508;43.238;25.306;2022-10-22T06:51:03;34.45;;;14.75;;
67715;SDS011;54508;43.238;25.306;2022-10-22T06:53:30;39.92;;;14.27;;
67715;SDS011;54508;43.238;25.306;2022-10-22T06:55:56;31.90;;;15.25;;
67715;SDS011;54508;43.238;25.306;2022-10-22T06:58:22;36.50;;;17.33;;
67715;SDS011;54508;43.238;25.306;2022-10-22T07:00:47;39.55;;;17.80;;
67715;SDS011;54508;43.238;25.306;2022-10-22T07:03:13;36.65;;;16.95;;
67715;SDS011;54508;43.238;25.306;2022-10-22T07:05:39;39.05;;;16.50;;
67715;SDS011;54508;43.238;25.306;2022-10-22T07:08:05;27.45;;;15.43;;
67715;SDS011;54508;43.238;25.306;2022-10-22T07:10:31;32.35;;;16.25;;
67715;SDS011;54508;43.238;25.306;2022-10-22T07:12:57;33.10;;;14.97;;
67715;SDS011;54508;43.238;25.306;2022-10-22T07:15:22;27.40;;;14.90;;
67715;SDS011;54508;43.238;25.306;2022-10-22T07:17:48;31.33;;;15.33;;
67715;SDS011;54508;43.238;25.306;2022-10-22T07:20:13;26.00;;;13.13;;
67715;SDS011;54508;43.238;25.306;2022-10-22T07:22:40;32.63;;;14.77;;
67715;SDS011;54508;43.238;25.306;2022-10-22T07:25:06;26.93;;;12.70;;
67715;SDS011;54508;43.238;25.306;2022-10-22T07:27:31;23.80;;;12.80;;
67715;SDS011;54508;43.238;25.306;2022-10-22T07:29:57;25.40;;;11.93;;
67715;SDS011;54508;43.238;25.306;2022-10-22T07:32:25;20.27;;;11.68;;
67715;SDS011;54508;43.238;25.306;2022-10-22T07:34:50;20.80;;;12.87;;
67715;SDS011;54508;43.238;25.306;2022-10-22T07:37:16;18.97;;;11.47;;
67715;SDS011;54508;43.238;25.306;2022-10-22T07:39:41;22.70;;;12.75;;
67715;SDS011;54508;43.238;25.306;2022-10-22T07:42:07;17.87;;;11.53;;
67715;SDS011;54508;43.238;25.306;2022-10-22T07:44:32;20.43;;;11.33;;
67715;SDS011;54508;43.238;25.306;2022-10-22T07:46:57;17.10;;;10.87;;
67715;SDS011;54508;43.238;25.306;2022-10-22T07:49:23;18.63;;;11.07;;
67715;SDS011;54508;43.238;25.306;2022-10-22T07:51:48;20.65;;;11.38;;
67715;SDS011;54508;43.238;25.306;2022-10-22T07:54:14;16.67;;;11.23;;
67715;SDS011;54508;43.238;25.306;2022-10-22T07:56:39;17.57;;;11.60;;
67715;SDS011;54508;43.238;25.306;2022-10-22T07:59:05;17.77;;;11.03;;
67715;SDS011;54508;43.238;25.306;2022-10-22T08:01:30;17.20;;;10.48;;
67715;SDS011;54508;43.238;25.306;2022-10-22T08:03:56;20.20;;;10.70;;
67715;SDS011;54508;43.238;25.306;2022-10-22T08:06:21;14.73;;;10.60;;
67715;SDS011;54508;43.238;25.306;2022-10-22T08:08:47;18.33;;;10.77;;
67715;SDS011;54508;43.238;25.306;2022-10-22T08:11:12;18.05;;;10.63;;
67715;SDS011;54508;43.238;25.306;2022-10-22T08:13:38;13.43;;;9.10;;
67715;SDS011;54508;43.238;25.306;2022-10-22T08:16:03;17.00;;;10.73;;
67715;SDS011;54508;43.238;25.306;2022-10-22T08:18:29;17.75;;;10.20;;
67715;SDS011;54508;43.238;25.306;2022-10-22T08:20:55;14.73;;;9.73;;
67715;SDS011;54508;43.238;25.306;2022-10-22T08:23:20;13.70;;;9.13;;
67715;SDS011;54508;43.238;25.306;2022-10-22T08:25:46;15.27;;;8.87;;
67715;SDS011;54508;43.238;25.306;2022-10-22T08:28:12;15.15;;;9.32;;
67715;SDS011;54508;43.238;25.306;2022-10-22T08:30:37;14.50;;;9.20;;
67715;SDS011;54508;43.238;25.306;2022-10-22T08:33:04;13.32;;;9.55;;
67715;SDS011;54508;43.238;25.306;2022-10-22T08:35:30;16.93;;;8.37;;
67715;SDS011;54508;43.238;25.306;2022-10-22T08:37:55;13.73;;;8.82;;
67715;SDS011;54508;43.238;25.306;2022-10-22T08:40:31;15.30;;;9.23;;
67715;SDS011;54508;43.238;25.306;2022-10-22T08:45:34;17.95;;;8.38;;
67715;SDS011;54508;43.238;25.306;2022-10-22T08:50:39;16.98;;;10.38;;
67715;SDS011;54508;43.238;25.306;2022-10-22T08:53:17;12.07;;;9.60;;
67715;SDS011;54508;43.238;25.306;2022-10-22T08:55:44;13.18;;;9.25;;
67715;SDS011;54508;43.238;25.306;2022-10-22T09:03:35;14.75;;;9.55;;
67715;SDS011;54508;43.238;25.306;2022-10-22T09:08:38;15.23;;;9.23;;
67715;SDS011;54508;43.238;25.306;2022-10-22T09:13:49;15.02;;;8.88;;
67715;SDS011;54508;43.238;25.306;2022-10-22T09:16:17;15.02;;;9.02;;
67715;SDS011;54508;43.238;25.306;2022-10-22T09:19:05;13.35;;;8.60;;
67715;SDS011;54508;43.238;25.306;2022-10-22T09:27:11;10.27;;;7.63;;
67715;SDS011;54508;43.238;25.306;2022-10-22T09:29:38;10.43;;;7.45;;
67715;SDS011;54508;43.238;25.306;2022-10-22T09:32:04;11.32;;;7.65;;
67715;SDS011;54508;43.238;25.306;2022-10-22T09:34:29;10.93;;;7.40;;
67715;SDS011;54508;43.238;25.306;2022-10-22T09:36:58;11.63;;;7.97;;
67715;SDS011;54508;43.238;25.306;2022-10-22T09:39:27;10.10;;;7.00;;
67715;SDS011;54508;43.238;25.306;2022-10-22T09:41:56;13.13;;;7.38;;
67715;SDS011;54508;43.238;25.306;2022-10-22T09:44:21;9.17;;;7.00;;
67715;SDS011;54508;43.238;25.306;2022-10-22T09:46:47;14.70;;;7.03;;
67715;SDS011;54508;43.238;25.306;2022-10-22T09:49:16;8.85;;;6.45;;
67715;SDS011;54508;43.238;25.306;2022-10-22T09:51:50;10.27;;;6.95;;
67715;SDS011;54508;43.238;25.306;2022-10-22T09:57:12;9.50;;;7.13;;
67715;SDS011;54508;43.238;25.306;2022-10-22T09:59:43;13.43;;;7.60;;
67715;SDS011;54508;43.238;25.306;2022-10-22T10:02:18;11.60;;;7.15;;
67715;SDS011;54508;43.238;25.306;2022-10-22T10:04:53;9.93;;;7.53;;
67715;SDS011;54508;43.238;25.306;2022-10-22T10:07:20;10.75;;;7.40;;
67715;SDS011;54508;43.238;25.306;2022-10-22T10:09:47;11.93;;;6.70;;
67715;SDS011;54508;43.238;25.306;2022-10-22T10:15:19;9.73;;;7.65;;
67715;SDS011;54508;43.238;25.306;2022-10-22T10:20:40;13.70;;;7.18;;
67715;SDS011;54508;43.238;25.306;2022-10-22T10:33:58;9.38;;;7.03;;
67715;SDS011;54508;43.238;25.306;2022-10-22T10:42:34;8.47;;;6.57;;
67715;SDS011;54508;43.238;25.306;2022-10-22T10:55:35;8.80;;;6.97;;
67715;SDS011;54508;43.238;25.306;2022-10-22T10:58:16;8.98;;;7.13;;
67715;SDS011;54508;43.238;25.306;2022-10-22T11:01:01;11.32;;;7.15;;
67715;SDS011;54508;43.238;25.306;2022-10-22T11:03:34;10.48;;;7.43;;
67715;SDS011;54508;43.238;25.306;2022-10-22T11:06:08;10.82;;;7.30;;
67715;SDS011;54508;43.238;25.306;2022-10-22T11:08:41;9.20;;;6.63;;
67715;SDS011;54508;43.238;25.306;2022-10-22T11:14:29;10.20;;;6.95;;
67715;SDS011;54508;43.238;25.306;2022-10-22T11:19:45;8.85;;;6.35;;
67715;SDS011;54508;43.238;25.306;2022-10-22T11:25:14;7.43;;;6.38;;
67715;SDS011;54508;43.238;25.306;2022-10-22T11:30:37;7.47;;;6.28;;
67715;SDS011;54508;43.238;25.306;2022-10-22T11:33:06;10.02;;;6.47;;
67715;SDS011;54508;43.238;25.306;2022-10-22T11:35:43;7.90;;;6.07;;
67715;SDS011;54508;43.238;25.306;2022-10-22T11:38:22;11.00;;;5.95;;
67715;SDS011;54508;43.238;25.306;2022-10-22T11:40:51;9.48;;;6.10;;
67715;SDS011;54508;43.238;25.306;2022-10-22T11:43:28;8.30;;;5.70;;
67715;SDS011;54508;43.238;25.306;2022-10-22T11:48:39;10.57;;;6.37;;
67715;SDS011;54508;43.238;25.306;2022-10-22T11:51:27;9.98;;;6.43;;
67715;SDS011;54508;43.238;25.306;2022-10-22T11:53:54;13.63;;;6.30;;
67715;SDS011;54508;43.238;25.306;2022-10-22T11:56:22;8.68;;;5.80;;
67715;SDS011;54508;43.238;25.306;2022-10-22T11:58:49;11.37;;;6.87;;
67715;SDS011;54508;43.238;25.306;2022-10-22T12:01:16;7.60;;;5.72;;
67715;SDS011;54508;43.238;25.306;2022-10-22T12:06:24;10.47;;;6.23;;
67715;SDS011;54508;43.238;25.306;2022-10-22T12:17:02;8.93;;;5.85;;
67715;SDS011;54508;43.238;25.306;2022-10-22T12:19:40;8.45;;;6.05;;
67715;SDS011;54508;43.238;25.306;2022-10-22T12:22:24;10.43;;;5.95;;
67715;SDS011;54508;43.238;25.306;2022-10-22T12:24:52;9.27;;;5.80;;
67715;SDS011;54508;43.238;25.306;2022-10-22T12:27:20;10.15;;;6.20;;
67715;SDS011;54508;43.238;25.306;2022-10-22T12:29:51;8.10;;;5.82;;
67715;SDS011;54508;43.238;25.306;2022-10-22T12:32:19;9.65;;;6.40;;
67715;SDS011;54508;43.238;25.306;2022-10-22T12:34:45;9.00;;;6.17;;
67715;SDS011;54508;43.238;25.306;2022-10-22T12:37:12;9.77;;;5.95;;
67715;SDS011;54508;43.238;25.306;2022-10-22T12:39:39;8.30;;;5.85;;
67715;SDS011;54508;43.238;25.306;2022-10-22T12:42:04;8.13;;;5.83;;
67715;SDS011;54508;43.238;25.306;2022-10-22T12:44:32;8.63;;;5.90;;
67715;SDS011;54508;43.238;25.306;2022-10-22T12:46:57;7.73;;;5.50;;
67715;SDS011;54508;43.238;25.306;2022-10-22T12:49:24;9.80;;;6.20;;
67715;SDS011;54508;43.238;25.306;2022-10-22T12:52:00;9.15;;;5.63;;
67715;SDS011;54508;43.238;25.306;2022-10-22T12:54:28;6.60;;;5.38;;
67715;SDS011;54508;43.238;25.306;2022-10-22T12:56:55;8.13;;;5.15;;
67715;SDS011;54508;43.238;25.306;2022-10-22T12:59:22;10.88;;;5.47;;
67715;SDS011;54508;43.238;25.306;2022-10-22T13:01:50;7.22;;;5.22;;
67715;SDS011;54508;43.238;25.306;2022-10-22T13:06:51;7.63;;;5.15;;
67715;SDS011;54508;43.238;25.306;2022-10-22T13:09:40;7.73;;;5.00;;
67715;SDS011;54508;43.238;25.306;2022-10-22T13:12:10;7.20;;;4.88;;
67715;SDS011;54508;43.238;25.306;2022-10-22T13:14:46;8.98;;;5.10;;
67715;SDS011;54508;43.238;25.306;2022-10-22T13:17:12;8.77;;;5.00;;
67715;SDS011;54508;43.238;25.306;2022-10-22T13:22:28;7.20;;;5.40;;
67715;SDS011;54508;43.238;25.306;2022-10-22T13:24:51;6.68;;;5.07;;
67715;SDS011;54508;43.238;25.306;2022-10-22T13:27:16;7.00;;;5.20;;
67715;SDS011;54508;43.238;25.306;2022-10-22T13:29:42;5.88;;;4.93;;
67715;SDS011;54508;43.238;25.306;2022-10-22T13:32:22;7.13;;;4.87;;
67715;SDS011;54508;43.238;25.306;2022-10-22T13:34:55;7.60;;;5.60;;
67715;SDS011;54508;43.238;25.306;2022-10-22T13:37:22;9.40;;;5.55;;
67715;SDS011;54508;43.238;25.306;2022-10-22T13:39:48;8.40;;;4.93;;
67715;SDS011;54508;43.238;25.306;2022-10-22T13:42:13;7.38;;;4.60;;
67715;SDS011;54508;43.238;25.306;2022-10-22T13:44:39;6.30;;;5.13;;
67715;SDS011;54508;43.238;25.306;2022-10-22T13:47:08;6.03;;;5.10;;
67715;SDS011;54508;43.238;25.306;2022-10-22T13:49:49;5.90;;;4.78;;
67715;SDS011;54508;43.238;25.306;2022-10-22T13:52:17;8.23;;;5.33;;
67715;SDS011;54508;43.238;25.306;2022-10-22T13:54:50;9.02;;;5.40;;
67715;SDS011;54508;43.238;25.306;2022-10-22T13:57:15;7.53;;;5.10;;
67715;SDS011;54508;43.238;25.306;2022-10-22T13:59:41;7.47;;;5.27;;
67715;SDS011;54508;43.238;25.306;2022-10-22T14:02:12;6.93;;;4.90;;
67715;SDS011;54508;43.238;25.306;2022-10-22T14:04:38;6.13;;;4.83;;
67715;SDS011;54508;43.238;25.306;2022-10-22T14:07:14;8.73;;;5.30;;
67715;SDS011;54508;43.238;25.306;2022-10-22T14:09:41;7.82;;;4.88;;
67715;SDS011;54508;43.238;25.306;2022-10-22T14:12:15;8.52;;;4.72;;
67715;SDS011;54508;43.238;25.306;2022-10-22T14:14:41;9.23;;;5.15;;
67715;SDS011;54508;43.238;25.306;2022-10-22T14:17:13;7.07;;;4.77;;
67715;SDS011;54508;43.238;25.306;2022-10-22T14:19:41;7.25;;;4.50;;
67715;SDS011;54508;43.238;25.306;2022-10-22T14:22:26;7.93;;;4.53;;
67715;SDS011;54508;43.238;25.306;2022-10-22T14:24:52;6.07;;;4.18;;
67715;SDS011;54508;43.238;25.306;2022-10-22T14:27:18;6.10;;;5.00;;
67715;SDS011;54508;43.238;25.306;2022-10-22T14:29:43;6.38;;;4.45;;
67715;SDS011;54508;43.238;25.306;2022-10-22T14:32:16;7.47;;;4.77;;
67715;SDS011;54508;43.238;25.306;2022-10-22T14:34:45;11.82;;;6.43;;
67715;SDS011;54508;43.238;25.306;2022-10-22T14:37:12;6.13;;;4.43;;
67715;SDS011;54508;43.238;25.306;2022-10-22T14:39:40;8.43;;;5.03;;
67715;SDS011;54508;43.238;25.306;2022-10-22T14:42:08;6.28;;;5.10;;
67715;SDS011;54508;43.238;25.306;2022-10-22T14:44:35;6.93;;;5.07;;
67715;SDS011;54508;43.238;25.306;2022-10-22T14:47:00;8.67;;;5.17;;
67715;SDS011;54508;43.238;25.306;2022-10-22T14:49:26;6.60;;;5.13;;
67715;SDS011;54508;43.238;25.306;2022-10-22T14:51:51;7.60;;;5.10;;
67715;SDS011;54508;43.238;25.306;2022-10-22T14:54:17;7.25;;;5.13;;
67715;SDS011;54508;43.238;25.306;2022-10-22T14:56:42;8.33;;;5.47;;
67715;SDS011;54508;43.238;25.306;2022-10-22T14:59:08;8.47;;;5.47;;
67715;SDS011;54508;43.238;25.306;2022-10-22T15:01:33;9.10;;;5.05;;
67715;SDS011;54508;43.238;25.306;2022-10-22T15:03:59;7.50;;;5.20;;
67715;SDS011;54508;43.238;25.306;2022-10-22T15:06:24;6.73;;;4.80;;
67715;SDS011;54508;43.238;25.306;2022-10-22T15:08:50;8.27;;;5.28;;
67715;SDS011;54508;43.238;25.306;2022-10-22T15:11:15;6.90;;;5.40;;
67715;SDS011;54508;43.238;25.306;2022-10-22T15:13:41;8.83;;;5.43;;
67715;SDS011;54508;43.238;25.306;2022-10-22T15:16:08;7.50;;;5.28;;
67715;SDS011;54508;43.238;25.306;2022-10-22T15:18:34;7.60;;;5.60;;
67715;SDS011;54508;43.238;25.306;2022-10-22T15:21:02;8.45;;;6.03;;
67715;SDS011;54508;43.238;25.306;2022-10-22T15:23:29;9.93;;;5.90;;
67715;SDS011;54508;43.238;25.306;2022-10-22T15:25:55;8.60;;;5.30;;
67715;SDS011;54508;43.238;25.306;2022-10-22T15:28:21;9.27;;;5.65;;
67715;SDS011;54508;43.238;25.306;2022-10-22T15:30:54;9.23;;;5.72;;
67715;SDS011;54508;43.238;25.306;2022-10-22T15:33:19;10.02;;;6.13;;
67715;SDS011;54508;43.238;25.306;2022-10-22T15:35:45;10.18;;;6.40;;
67715;SDS011;54508;43.238;25.306;2022-10-22T15:38:10;11.97;;;6.43;;
67715;SDS011;54508;43.238;25.306;2022-10-22T15:40:36;8.83;;;5.80;;
67715;SDS011;54508;43.238;25.306;2022-10-22T15:43:01;10.07;;;6.23;;
67715;SDS011;54508;43.238;25.306;2022-10-22T15:45:27;7.88;;;6.25;;
67715;SDS011;54508;43.238;25.306;2022-10-22T15:47:52;12.57;;;6.40;;
67715;SDS011;54508;43.238;25.306;2022-10-22T15:50:18;10.87;;;5.60;;
67715;SDS011;54508;43.238;25.306;2022-10-22T15:52:43;8.02;;;6.40;;
67715;SDS011;54508;43.238;25.306;2022-10-22T15:55:09;9.27;;;6.20;;
67715;SDS011;54508;43.238;25.306;2022-10-22T15:57:35;12.85;;;6.03;;
67715;SDS011;54508;43.238;25.306;2022-10-22T16:00:02;9.23;;;5.93;;
67715;SDS011;54508;43.238;25.306;2022-10-22T16:02:29;10.20;;;6.53;;
67715;SDS011;54508;43.238;25.306;2022-10-22T16:04:54;8.57;;;6.13;;
67715;SDS011;54508;43.238;25.306;2022-10-22T16:07:20;8.23;;;5.90;;
67715;SDS011;54508;43.238;25.306;2022-10-22T16:09:45;9.33;;;6.70;;
67715;SDS011;54508;43.238;25.306;2022-10-22T16:12:12;9.65;;;6.47;;
67715;SDS011;54508;43.238;25.306;2022-10-22T16:14:38;9.07;;;6.43;;
67715;SDS011;54508;43.238;25.306;2022-10-22T16:17:03;8.05;;;6.47;;
67715;SDS011;54508;43.238;25.306;2022-10-22T16:19:28;9.70;;;6.87;;
67715;SDS011;54508;43.238;25.306;2022-10-22T16:21:54;13.73;;;7.53;;
67715;SDS011;54508;43.238;25.306;2022-10-22T16:24:20;10.63;;;7.05;;
67715;SDS011;54508;43.238;25.306;2022-10-22T16:26:46;11.20;;;6.68;;
67715;SDS011;54508;43.238;25.306;2022-10-22T16:29:12;9.17;;;6.87;;
67715;SDS011;54508;43.238;25.306;2022-10-22T16:31:39;9.75;;;6.45;;
67715;SDS011;54508;43.238;25.306;2022-10-22T16:34:05;11.20;;;7.65;;